sensor_id;sensor_type;location;lat;lon;timestamp;pressure;altitude;pressure_sealevel;temperature;humidity
16793;BME280;8513;42.662;23.350;2023-07-31T00:01:45;94591.09;;;23.28;52.23
16793;BME280;8513;42.662;23.350;2023-07-31T00:04:10;94583.22;;;23.38;51.84
16793;BME280;8513;42.662;23.350;2023-07-31T00:06:35;94578.13;;;23.37;52.41
16793;BME280;8513;42.662;23.350;2023-07-31T00:09:01;94588.38;;;23.40;52.38
16793;BME280;8513;42.662;23.350;2023-07-31T00:11:26;94581.78;;;23.47;52.61
16793;BME280;8513;42.662;23.350;2023-07-31T00:13:53;94595.44;;;23.46;52.75
16793;BME280;8513;42.662;23.350;2023-07-31T00:16:19;94594.06;;;23.43;52.55
16793;BME280;8513;42.662;23.350;2023-07-31T00:18:44;94595.75;;;23.32;52.34
16793;BME280;8513;42.662;23.350;2023-07-31T00:21:10;94596.22;;;23.29;52.39
16793;BME280;8513;42.662;23.350;2023-07-31T00:23:35;94591.84;;;23.23;52.65
16793;BME280;8513;42.662;23.350;2023-07-31T00:26:00;94583.63;;;23.30;52.33
16793;BME280;8513;42.662;23.350;2023-07-31T00:28:26;94582.63;;;23.19;52.83
16793;BME280;8513;42.662;23.350;2023-07-31T00:30:52;94582.88;;;23.18;53.37
16793;BME280;8513;42.662;23.350;2023-07-31T00:33:18;94575.22;;;23.09;54.60
16793;BME280;8513;42.662;23.350;2023-07-31T00:35:43;94559.06;;;22.93;55.48
16793;BME280;8513;42.662;23.350;2023-07-31T00:38:08;94554.97;;;22.90;56.22
16793;BME280;8513;42.662;23.350;2023-07-31T00:40:35;94555.88;;;22.96;55.86
16793;BME280;8513;42.662;23.350;2023-07-31T00:43:02;94546.22;;;22.95;56.17
16793;BME280;8513;42.662;23.350;2023-07-31T00:45:28;94555.88;;;22.96;55.96
16793;BME280;8513;42.662;23.350;2023-07-31T00:47:54;94557.25;;;22.81;56.75
16793;BME280;8513;42.662;23.350;2023-07-31T00:50:19;94562.31;;;22.95;56.04
16793;BME280;8513;42.662;23.350;2023-07-31T00:52:45;94568.97;;;22.92;56.18
16793;BME280;8513;42.662;23.350;2023-07-31T00:55:10;94558.84;;;22.82;56.78
16793;BME280;8513;42.662;23.350;2023-07-31T00:57:36;94564.38;;;22.76;56.68
16793;BME280;8513;42.662;23.350;2023-07-31T01:00:03;94564.66;;;22.62;57.50
16793;BME280;8513;42.662;23.350;2023-07-31T01:02:29;94557.50;;;22.68;57.29
16793;BME280;8513;42.662;23.350;2023-07-31T01:04:54;94549.84;;;22.60;57.32
16793;BME280;8513;42.662;23.350;2023-07-31T01:10:00;94551.25;;;22.51;57.95
16793;BME280;8513;42.662;23.350;2023-07-31T01:12:30;94550.91;;;22.59;57.66
16793;BME280;8513;42.662;23.350;2023-07-31T01:15:04;94549.03;;;22.59;57.51
16793;BME280;8513;42.662;23.350;2023-07-31T01:17:30;94550.19;;;22.63;57.49
16793;BME280;8513;42.662;23.350;2023-07-31T01:19:59;94541.34;;;22.63;57.53
16793;BME280;8513;42.662;23.350;2023-07-31T01:28:36;94545.09;;;22.50;58.39
16793;BME280;8513;42.662;23.350;2023-07-31T01:31:07;94547.94;;;22.43;58.63
16793;BME280;8513;42.662;23.350;2023-07-31T01:33:36;94540.00;;;22.37;58.93
16793;BME280;8513;42.662;23.350;2023-07-31T01:36:02;94535.56;;;22.42;58.56
16793;BME280;8513;42.662;23.350;2023-07-31T01:38:28;94537.59;;;22.23;59.63
16793;BME280;8513;42.662;23.350;2023-07-31T01:40:54;94540.50;;;22.22;59.85
16793;BME280;8513;42.662;23.350;2023-07-31T01:43:20;94537.25;;;22.08;60.37
16793;BME280;8513;42.662;23.350;2023-07-31T01:45:45;94537.25;;;22.08;60.27
16793;BME280;8513;42.662;23.350;2023-07-31T01:48:11;94534.31;;;22.10;60.35
16793;BME280;8513;42.662;23.350;2023-07-31T01:50:36;94530.50;;;22.06;60.84
16793;BME280;8513;42.662;23.350;2023-07-31T01:53:01;94528.28;;;22.02;60.92
16793;BME280;8513;42.662;23.350;2023-07-31T01:55:27;94535.50;;;22.02;61.06
16793;BME280;8513;42.662;23.350;2023-07-31T01:57:52;94540.25;;;22.12;60.89
16793;BME280;8513;42.662;23.350;2023-07-31T02:00:18;94552.72;;;22.06;61.19
16793;BME280;8513;42.662;23.350;2023-07-31T02:02:43;94535.97;;;21.64;62.95
16793;BME280;8513;42.662;23.350;2023-07-31T02:05:09;94542.72;;;21.78;62.50
16793;BME280;8513;42.662;23.350;2023-07-31T02:07:34;94543.75;;;21.89;62.38
16793;BME280;8513;42.662;23.350;2023-07-31T02:10:00;94543.66;;;21.72;62.73
16793;BME280;8513;42.662;23.350;2023-07-31T02:12:25;94552.03;;;21.75;62.72
16793;BME280;8513;42.662;23.350;2023-07-31T02:14:50;94555.88;;;21.79;62.81
16793;BME280;8513;42.662;23.350;2023-07-31T02:17:16;94557.03;;;21.84;62.61
16793;BME280;8513;42.662;23.350;2023-07-31T02:19:41;94554.94;;;21.86;62.61
16793;BME280;8513;42.662;23.350;2023-07-31T02:22:07;94549.00;;;21.84;62.73
16793;BME280;8513;42.662;23.350;2023-07-31T02:24:32;94552.50;;;21.84;62.75
16793;BME280;8513;42.662;23.350;2023-07-31T02:26:57;94557.16;;;21.77;63.05
16793;BME280;8513;42.662;23.350;2023-07-31T02:29:23;94555.63;;;21.81;63.12
16793;BME280;8513;42.662;23.350;2023-07-31T02:31:48;94551.34;;;21.80;63.13
16793;BME280;8513;42.662;23.350;2023-07-31T02:34:14;94543.91;;;21.82;63.18
16793;BME280;8513;42.662;23.350;2023-07-31T02:36:39;94557.03;;;21.95;62.74
16793;BME280;8513;42.662;23.350;2023-07-31T02:39:04;94554.84;;;21.92;62.68
16793;BME280;8513;42.662;23.350;2023-07-31T02:41:30;94554.34;;;21.72;63.51
16793;BME280;8513;42.662;23.350;2023-07-31T02:43:55;94541.81;;;21.84;63.06
16793;BME280;8513;42.662;23.350;2023-07-31T02:46:21;94543.44;;;21.85;63.13
16793;BME280;8513;42.662;23.350;2023-07-31T02:48:49;94553.31;;;21.73;63.56
16793;BME280;8513;42.662;23.350;2023-07-31T02:51:15;94560.66;;;21.89;62.79
16793;BME280;8513;42.662;23.350;2023-07-31T02:53:40;94562.63;;;21.94;62.66
16793;BME280;8513;42.662;23.350;2023-07-31T02:56:05;94561.09;;;21.86;62.58
16793;BME280;8513;42.662;23.350;2023-07-31T02:58:31;94559.47;;;21.85;62.98
16793;BME280;8513;42.662;23.350;2023-07-31T03:00:58;94561.47;;;21.90;62.63
16793;BME280;8513;42.662;23.350;2023-07-31T03:03:24;94568.22;;;21.92;62.49
16793;BME280;8513;42.662;23.350;2023-07-31T03:05:49;94565.91;;;21.84;62.63
16793;BME280;8513;42.662;23.350;2023-07-31T03:08:14;94578.00;;;21.87;62.54
16793;BME280;8513;42.662;23.350;2023-07-31T03:10:40;94576.69;;;21.77;62.88
16793;BME280;8513;42.662;23.350;2023-07-31T03:13:06;94578.22;;;21.73;62.97
16793;BME280;8513;42.662;23.350;2023-07-31T03:15:31;94580.78;;;21.80;62.75
16793;BME280;8513;42.662;23.350;2023-07-31T03:17:57;94577.38;;;21.73;62.86
16793;BME280;8513;42.662;23.350;2023-07-31T03:20:22;94582.97;;;21.83;62.81
16793;BME280;8513;42.662;23.350;2023-07-31T03:22:47;94585.19;;;21.86;62.90
16793;BME280;8513;42.662;23.350;2023-07-31T03:25:13;94583.81;;;21.95;62.49
16793;BME280;8513;42.662;23.350;2023-07-31T03:27:39;94580.44;;;21.88;63.03
16793;BME280;8513;42.662;23.350;2023-07-31T03:30:05;94584.97;;;21.88;63.05
16793;BME280;8513;42.662;23.350;2023-07-31T03:32:31;94589.88;;;22.02;62.49
16793;BME280;8513;42.662;23.350;2023-07-31T03:34:57;94586.00;;;21.75;63.37
16793;BME280;8513;42.662;23.350;2023-07-31T03:37:22;94585.19;;;21.86;63.04
16793;BME280;8513;42.662;23.350;2023-07-31T03:39:48;94587.06;;;21.86;62.79
16793;BME280;8513;42.662;23.350;2023-07-31T03:42:13;94586.59;;;22.00;62.52
16793;BME280;8513;42.662;23.350;2023-07-31T03:44:39;94586.72;;;21.94;62.75
16793;BME280;8513;42.662;23.350;2023-07-31T03:47:05;94589.25;;;21.89;62.50
16793;BME280;8513;42.662;23.350;2023-07-31T03:49:30;94584.03;;;21.82;62.56
16793;BME280;8513;42.662;23.350;2023-07-31T03:51:56;94589.03;;;21.90;62.37
16793;BME280;8513;42.662;23.350;2023-07-31T03:54:21;94595.78;;;21.93;62.62
16793;BME280;8513;42.662;23.350;2023-07-31T03:56:46;94595.44;;;21.77;62.90
16793;BME280;8513;42.662;23.350;2023-07-31T03:59:12;94595.78;;;21.81;62.65
16793;BME280;8513;42.662;23.350;2023-07-31T04:01:37;94610.69;;;21.89;62.36
16793;BME280;8513;42.662;23.350;2023-07-31T04:04:03;94608.84;;;21.89;62.20
16793;BME280;8513;42.662;23.350;2023-07-31T04:06:28;94610.47;;;21.90;62.21
16793;BME280;8513;42.662;23.350;2023-07-31T04:08:54;94608.34;;;21.80;62.82
16793;BME280;8513;42.662;23.350;2023-07-31T04:11:19;94610.22;;;21.80;62.68
16793;BME280;8513;42.662;23.350;2023-07-31T04:13:44;94606.34;;;21.64;63.24
16793;BME280;8513;42.662;23.350;2023-07-31T04:16:10;94615.53;;;21.56;63.51
16793;BME280;8513;42.662;23.350;2023-07-31T04:18:35;94611.25;;;21.67;63.01
16793;BME280;8513;42.662;23.350;2023-07-31T04:21:01;94608.22;;;21.64;63.00
16793;BME280;8513;42.662;23.350;2023-07-31T04:23:27;94613.69;;;21.69;62.98
16793;BME280;8513;42.662;23.350;2023-07-31T04:25:53;94615.34;;;21.82;62.37
16793;BME280;8513;42.662;23.350;2023-07-31T04:28:18;94619.75;;;21.88;62.03
16793;BME280;8513;42.662;23.350;2023-07-31T04:30:44;94617.22;;;21.93;62.06
16793;BME280;8513;42.662;23.350;2023-07-31T04:33:09;94615.31;;;21.70;62.84
16793;BME280;8513;42.662;23.350;2023-07-31T04:35:34;94624.66;;;21.79;62.39
16793;BME280;8513;42.662;23.350;2023-07-31T04:38:00;94613.13;;;21.90;62.06
16793;BME280;8513;42.662;23.350;2023-07-31T04:40:26;94613.97;;;22.02;61.74
16793;BME280;8513;42.662;23.350;2023-07-31T04:42:51;94621.41;;;22.00;61.23
16793;BME280;8513;42.662;23.350;2023-07-31T04:45:17;94622.66;;;21.86;61.51
16793;BME280;8513;42.662;23.350;2023-07-31T04:47:42;94614.41;;;21.99;61.19
16793;BME280;8513;42.662;23.350;2023-07-31T04:50:08;94617.78;;;22.07;60.97
16793;BME280;8513;42.662;23.350;2023-07-31T04:52:33;94620.47;;;22.07;60.98
16793;BME280;8513;42.662;23.350;2023-07-31T04:54:59;94614.78;;;22.03;60.79
16793;BME280;8513;42.662;23.350;2023-07-31T04:57:24;94624.88;;;22.13;60.32
16793;BME280;8513;42.662;23.350;2023-07-31T04:59:50;94609.75;;;22.07;60.60
16793;BME280;8513;42.662;23.350;2023-07-31T05:02:15;94618.38;;;22.09;60.78
16793;BME280;8513;42.662;23.350;2023-07-31T05:04:41;94614.75;;;22.15;60.10
16793;BME280;8513;42.662;23.350;2023-07-31T05:07:06;94613.97;;;22.26;59.89
16793;BME280;8513;42.662;23.350;2023-07-31T05:09:31;94612.22;;;22.32;59.67
16793;BME280;8513;42.662;23.350;2023-07-31T05:11:57;94606.75;;;22.38;59.58
16793;BME280;8513;42.662;23.350;2023-07-31T05:14:23;94619.53;;;22.60;58.93
16793;BME280;8513;42.662;23.350;2023-07-31T05:16:48;94611.69;;;22.70;58.59
16793;BME280;8513;42.662;23.350;2023-07-31T05:19:13;94614.16;;;22.60;58.98
16793;BME280;8513;42.662;23.350;2023-07-31T05:21:39;94613.22;;;22.66;58.74
16793;BME280;8513;42.662;23.350;2023-07-31T05:24:05;94613.16;;;22.89;58.22
16793;BME280;8513;42.662;23.350;2023-07-31T05:26:30;94600.50;;;22.73;57.90
16793;BME280;8513;42.662;23.350;2023-07-31T05:28:56;94600.31;;;22.92;57.37
16793;BME280;8513;42.662;23.350;2023-07-31T05:31:21;94604.41;;;22.94;56.73
16793;BME280;8513;42.662;23.350;2023-07-31T05:33:47;94606.38;;;22.99;57.09
16793;BME280;8513;42.662;23.350;2023-07-31T05:36:15;94602.13;;;22.74;58.04
16793;BME280;8513;42.662;23.350;2023-07-31T05:38:41;94603.50;;;22.77;57.84
16793;BME280;8513;42.662;23.350;2023-07-31T05:41:07;94601.47;;;22.67;57.85
16793;BME280;8513;42.662;23.350;2023-07-31T05:43:32;94577.78;;;22.76;57.25
16793;BME280;8513;42.662;23.350;2023-07-31T05:45:58;94594.22;;;22.67;57.11
16793;BME280;8513;42.662;23.350;2023-07-31T05:48:23;94596.09;;;22.55;57.57
16793;BME280;8513;42.662;23.350;2023-07-31T05:50:49;94601.34;;;22.62;57.08
16793;BME280;8513;42.662;23.350;2023-07-31T05:53:14;94612.63;;;22.64;56.90
16793;BME280;8513;42.662;23.350;2023-07-31T05:55:40;94617.44;;;22.50;57.00
16793;BME280;8513;42.662;23.350;2023-07-31T05:58:05;94613.50;;;22.29;57.12
16793;BME280;8513;42.662;23.350;2023-07-31T06:00:30;94613.94;;;22.50;56.50
16793;BME280;8513;42.662;23.350;2023-07-31T06:02:57;94620.00;;;22.45;56.90
16793;BME280;8513;42.662;23.350;2023-07-31T06:05:22;94631.63;;;22.51;56.49
16793;BME280;8513;42.662;23.350;2023-07-31T06:07:48;94628.97;;;22.39;55.88
16793;BME280;8513;42.662;23.350;2023-07-31T06:10:13;94629.25;;;22.37;55.90
16793;BME280;8513;42.662;23.350;2023-07-31T06:12:39;94624.44;;;22.39;56.20
16793;BME280;8513;42.662;23.350;2023-07-31T06:15:05;94623.75;;;22.20;56.23
16793;BME280;8513;42.662;23.350;2023-07-31T06:17:31;94622.69;;;22.33;55.25
16793;BME280;8513;42.662;23.350;2023-07-31T06:19:56;94623.59;;;22.62;53.40
16793;BME280;8513;42.662;23.350;2023-07-31T06:22:22;94619.53;;;22.60;52.67
16793;BME280;8513;42.662;23.350;2023-07-31T06:24:47;94625.91;;;22.71;52.42
16793;BME280;8513;42.662;23.350;2023-07-31T06:27:13;94617.72;;;22.77;51.88
16793;BME280;8513;42.662;23.350;2023-07-31T06:29:38;94614.59;;;22.80;52.15
16793;BME280;8513;42.662;23.350;2023-07-31T06:32:04;94621.56;;;22.81;52.07
16793;BME280;8513;42.662;23.350;2023-07-31T06:34:29;94608.84;;;23.00;51.20
16793;BME280;8513;42.662;23.350;2023-07-31T06:36:56;94612.19;;;22.96;51.16
16793;BME280;8513;42.662;23.350;2023-07-31T06:39:22;94608.34;;;23.03;51.47
16793;BME280;8513;42.662;23.350;2023-07-31T06:41:47;94613.56;;;22.70;52.30
16793;BME280;8513;42.662;23.350;2023-07-31T06:44:13;94624.47;;;22.92;52.25
16793;BME280;8513;42.662;23.350;2023-07-31T06:46:38;94624.03;;;22.71;52.96
16793;BME280;8513;42.662;23.350;2023-07-31T06:49:03;94625.31;;;22.68;53.29
16793;BME280;8513;42.662;23.350;2023-07-31T06:51:29;94623.66;;;22.79;53.09
16793;BME280;8513;42.662;23.350;2023-07-31T06:53:57;94628.88;;;22.98;53.19
16793;BME280;8513;42.662;23.350;2023-07-31T06:56:22;94637.59;;;22.93;52.58
16793;BME280;8513;42.662;23.350;2023-07-31T06:58:48;94631.78;;;23.08;51.97
16793;BME280;8513;42.662;23.350;2023-07-31T07:01:13;94643.06;;;23.39;51.40
16793;BME280;8513;42.662;23.350;2023-07-31T07:03:38;94626.06;;;23.33;51.02
16793;BME280;8513;42.662;23.350;2023-07-31T07:06:04;94627.53;;;23.41;50.57
16793;BME280;8513;42.662;23.350;2023-07-31T07:08:29;94626.13;;;23.50;50.50
16793;BME280;8513;42.662;23.350;2023-07-31T07:10:55;94620.97;;;23.48;50.50
16793;BME280;8513;42.662;23.350;2023-07-31T07:13:21;94633.88;;;23.06;51.68
16793;BME280;8513;42.662;23.350;2023-07-31T07:15:50;94629.78;;;23.15;51.23
16793;BME280;8513;42.662;23.350;2023-07-31T07:18:16;94637.19;;;22.96;51.58
16793;BME280;8513;42.662;23.350;2023-07-31T07:20:52;94631.34;;;22.87;51.38
16793;BME280;8513;42.662;23.350;2023-07-31T07:23:19;94635.31;;;22.97;50.95
16793;BME280;8513;42.662;23.350;2023-07-31T07:25:46;94625.50;;;22.90;51.30
16793;BME280;8513;42.662;23.350;2023-07-31T07:28:11;94623.63;;;23.03;50.80
16793;BME280;8513;42.662;23.350;2023-07-31T07:30:37;94632.56;;;23.20;50.35
16793;BME280;8513;42.662;23.350;2023-07-31T07:33:03;94632.81;;;23.36;50.32
16793;BME280;8513;42.662;23.350;2023-07-31T07:35:28;94623.94;;;23.18;50.62
16793;BME280;8513;42.662;23.350;2023-07-31T07:37:54;94619.38;;;23.19;50.74
16793;BME280;8513;42.662;23.350;2023-07-31T07:40:20;94619.78;;;22.99;51.08
16793;BME280;8513;42.662;23.350;2023-07-31T08:21:55;94634.78;;;23.86;47.45
16793;BME280;8513;42.662;23.350;2023-07-31T08:24:21;94642.34;;;24.06;48.26
16793;BME280;8513;42.662;23.350;2023-07-31T08:26:47;94630.94;;;24.15;46.94
16793;BME280;8513;42.662;23.350;2023-07-31T08:29:12;94643.34;;;24.16;46.45
16793;BME280;8513;42.662;23.350;2023-07-31T08:31:37;94630.38;;;24.13;46.91
16793;BME280;8513;42.662;23.350;2023-07-31T08:34:03;94633.91;;;24.14;46.67
16793;BME280;8513;42.662;23.350;2023-07-31T08:36:28;94624.53;;;24.16;46.45
16793;BME280;8513;42.662;23.350;2023-07-31T08:38:54;94630.44;;;24.18;46.11
16793;BME280;8513;42.662;23.350;2023-07-31T08:41:19;94635.81;;;24.18;45.72
16793;BME280;8513;42.662;23.350;2023-07-31T08:43:49;94635.81;;;24.18;46.64
16793;BME280;8513;42.662;23.350;2023-07-31T08:46:15;94632.59;;;23.83;46.27
16793;BME280;8513;42.662;23.350;2023-07-31T08:56:32;94637.13;;;24.50;44.42
16793;BME280;8513;42.662;23.350;2023-07-31T08:59:02;94635.59;;;24.76;44.04
16793;BME280;8513;42.662;23.350;2023-07-31T09:06:59;94624.06;;;24.58;43.76
16793;BME280;8513;42.662;23.350;2023-07-31T09:09:32;94620.66;;;24.29;45.19
16793;BME280;8513;42.662;23.350;2023-07-31T09:11:58;94624.13;;;24.08;45.55
16793;BME280;8513;42.662;23.350;2023-07-31T09:14:46;94614.38;;;24.02;45.35
16793;BME280;8513;42.662;23.350;2023-07-31T09:35:32;94598.50;;;25.81;40.58
16793;BME280;8513;42.662;23.350;2023-07-31T09:40:37;94601.28;;;25.59;41.79
16793;BME280;8513;42.662;23.350;2023-07-31T11:35:47;94535.06;;;28.44;32.01
16793;BME280;8513;42.662;23.350;2023-07-31T11:38:31;94543.59;;;28.77;31.86
16793;BME280;8513;42.662;23.350;2023-07-31T11:40:59;94538.75;;;28.74;31.06
16793;BME280;8513;42.662;23.350;2023-07-31T11:43:26;94520.91;;;28.63;31.40
16793;BME280;8513;42.662;23.350;2023-07-31T11:45:55;94523.94;;;28.56;31.66
16793;BME280;8513;42.662;23.350;2023-07-31T11:48:31;94533.41;;;28.53;31.58
16793;BME280;8513;42.662;23.350;2023-07-31T11:51:04;94524.25;;;28.34;32.46
16793;BME280;8513;42.662;23.350;2023-07-31T11:53:57;94524.25;;;28.44;32.36
16793;BME280;8513;42.662;23.350;2023-07-31T11:56:27;94516.94;;;28.50;32.28
16793;BME280;8513;42.662;23.350;2023-07-31T11:59:20;94532.59;;;28.43;31.82
16793;BME280;8513;42.662;23.350;2023-07-31T12:04:29;94517.56;;;28.86;32.07
16793;BME280;8513;42.662;23.350;2023-07-31T12:35:34;94504.56;;;29.38;31.99
16793;BME280;8513;42.662;23.350;2023-07-31T13:09:00;94481.91;;;31.26;27.77
16793;BME280;8513;42.662;23.350;2023-07-31T13:11:26;94466.72;;;31.25;27.59
16793;BME280;8513;42.662;23.350;2023-07-31T13:13:54;94475.81;;;31.34;27.07
16793;BME280;8513;42.662;23.350;2023-07-31T13:16:20;94475.91;;;31.10;27.71
16793;BME280;8513;42.662;23.350;2023-07-31T13:29:12;94482.03;;;29.42;29.49
16793;BME280;8513;42.662;23.350;2023-07-31T13:31:38;94494.06;;;29.65;29.75
16793;BME280;8513;42.662;23.350;2023-07-31T13:34:04;94494.00;;;29.76;28.69
